sensor_id;sensor_type;location;lat;lon;timestamp;temperature;humidity
39019;DHT22;24786;51.984;5.872;2024-02-14T00:02:11;8.10;99.90
39019;DHT22;24786;51.984;5.872;2024-02-14T00:04:55;8.10;99.90
39019;DHT22;24786;51.984;5.872;2024-02-14T00:07:33;8.00;99.90
39019;DHT22;24786;51.984;5.872;2024-02-14T00:10:10;8.00;99.90
39019;DHT22;24786;51.984;5.872;2024-02-14T00:12:42;8.10;99.90
39019;DHT22;24786;51.984;5.872;2024-02-14T00:15:27;8.20;99.90
39019;DHT22;24786;51.984;5.872;2024-02-14T00:17:59;8.00;99.90
39019;DHT22;24786;51.984;5.872;2024-02-14T00:20:24;8.00;99.90
39019;DHT22;24786;51.984;5.872;2024-02-14T00:22:49;8.10;99.90
39019;DHT22;24786;51.984;5.872;2024-02-14T00:25:15;8.10;99.90
39019;DHT22;24786;51.984;5.872;2024-02-14T00:28:02;8.10;99.90
39019;DHT22;24786;51.984;5.872;2024-02-14T00:30:26;8.10;99.90
39019;DHT22;24786;51.984;5.872;2024-02-14T00:32:55;8.10;99.90
39019;DHT22;24786;51.984;5.872;2024-02-14T00:35:23;8.20;99.90
39019;DHT22;24786;51.984;5.872;2024-02-14T00:37:49;8.20;99.90
39019;DHT22;24786;51.984;5.872;2024-02-14T00:40:17;8.20;99.90
39019;DHT22;24786;51.984;5.872;2024-02-14T00:42:43;8.20;99.90
39019;DHT22;24786;51.984;5.872;2024-02-14T00:45:08;8.20;99.90
39019;DHT22;24786;51.984;5.872;2024-02-14T00:47:34;8.20;99.90
39019;DHT22;24786;51.984;5.872;2024-02-14T00:50:00;8.20;99.90
39019;DHT22;24786;51.984;5.872;2024-02-14T00:52:31;8.20;99.90
39019;DHT22;24786;51.984;5.872;2024-02-14T00:55:09;8.20;99.90
39019;DHT22;24786;51.984;5.872;2024-02-14T00:57:34;8.20;99.90
39019;DHT22;24786;51.984;5.872;2024-02-14T01:00:00;8.20;99.90
39019;DHT22;24786;51.984;5.872;2024-02-14T01:02:29;8.20;99.90
39019;DHT22;24786;51.984;5.872;2024-02-14T01:04:55;8.30;99.90
39019;DHT22;24786;51.984;5.872;2024-02-14T01:07:20;8.20;99.90
39019;DHT22;24786;51.984;5.872;2024-02-14T01:09:46;8.30;99.90
39019;DHT22;24786;51.984;5.872;2024-02-14T01:12:12;8.30;99.90
39019;DHT22;24786;51.984;5.872;2024-02-14T01:14:43;8.30;99.90
39019;DHT22;24786;51.984;5.872;2024-02-14T01:17:27;8.30;99.90
39019;DHT22;24786;51.984;5.872;2024-02-14T01:19:59;8.30;99.90
39019;DHT22;24786;51.984;5.872;2024-02-14T01:22:33;8.30;99.90
39019;DHT22;24786;51.984;5.872;2024-02-14T01:24:58;8.40;99.90
39019;DHT22;24786;51.984;5.872;2024-02-14T01:27:24;8.40;99.90
39019;DHT22;24786;51.984;5.872;2024-02-14T01:29:53;8.40;99.90
39019;DHT22;24786;51.984;5.872;2024-02-14T01:32:26;8.40;99.90
39019;DHT22;24786;51.984;5.872;2024-02-14T01:34:54;8.40;99.90
39019;DHT22;24786;51.984;5.872;2024-02-14T01:37:20;8.40;99.90
39019;DHT22;24786;51.984;5.872;2024-02-14T01:39:52;8.50;99.90
39019;DHT22;24786;51.984;5.872;2024-02-14T01:42:26;8.40;99.90
39019;DHT22;24786;51.984;5.872;2024-02-14T01:44:53;8.50;99.90
39019;DHT22;24786;51.984;5.872;2024-02-14T01:47:23;8.50;99.90
39019;DHT22;24786;51.984;5.872;2024-02-14T01:50:05;8.50;99.90
39019;DHT22;24786;51.984;5.872;2024-02-14T01:52:34;8.50;99.90
39019;DHT22;24786;51.984;5.872;2024-02-14T01:55:01;8.50;99.90
39019;DHT22;24786;51.984;5.872;2024-02-14T01:57:27;8.60;99.90
39019;DHT22;24786;51.984;5.872;2024-02-14T01:59:53;8.60;99.90
39019;DHT22;24786;51.984;5.872;2024-02-14T02:02:19;8.60;99.90
39019;DHT22;24786;51.984;5.872;2024-02-14T02:04:45;8.60;99.90
39019;DHT22;24786;51.984;5.872;2024-02-14T02:07:11;8.60;99.90
39019;DHT22;24786;51.984;5.872;2024-02-14T02:09:37;8.60;99.90
39019;DHT22;24786;51.984;5.872;2024-02-14T02:12:03;8.70;99.90
39019;DHT22;24786;51.984;5.872;2024-02-14T02:14:33;8.70;99.90
39019;DHT22;24786;51.984;5.872;2024-02-14T02:16:59;8.70;99.90
39019;DHT22;24786;51.984;5.872;2024-02-14T02:19:24;8.70;99.90
39019;DHT22;24786;51.984;5.872;2024-02-14T02:21:50;8.80;99.90
39019;DHT22;24786;51.984;5.872;2024-02-14T02:24:15;8.80;99.90
39019;DHT22;24786;51.984;5.872;2024-02-14T02:26:40;8.80;99.90
39019;DHT22;24786;51.984;5.872;2024-02-14T02:29:06;8.80;99.90
39019;DHT22;24786;51.984;5.872;2024-02-14T02:31:31;8.80;99.90
39019;DHT22;24786;51.984;5.872;2024-02-14T02:33:57;8.80;99.90
39019;DHT22;24786;51.984;5.872;2024-02-14T02:36:23;8.90;99.90
39019;DHT22;24786;51.984;5.872;2024-02-14T02:38:49;8.90;99.90
39019;DHT22;24786;51.984;5.872;2024-02-14T02:41:15;8.90;99.90
39019;DHT22;24786;51.984;5.872;2024-02-14T02:43:40;8.80;99.90
39019;DHT22;24786;51.984;5.872;2024-02-14T02:46:08;8.80;99.90
39019;DHT22;24786;51.984;5.872;2024-02-14T02:48:34;8.80;99.90
39019;DHT22;24786;51.984;5.872;2024-02-14T02:51:00;8.90;99.90
39019;DHT22;24786;51.984;5.872;2024-02-14T02:53:25;8.90;99.90
39019;DHT22;24786;51.984;5.872;2024-02-14T02:55:51;8.90;99.90
39019;DHT22;24786;51.984;5.872;2024-02-14T02:58:16;8.90;99.90
39019;DHT22;24786;51.984;5.872;2024-02-14T03:00:42;8.90;99.90
39019;DHT22;24786;51.984;5.872;2024-02-14T03:03:08;8.90;99.90
39019;DHT22;24786;51.984;5.872;2024-02-14T03:05:33;8.90;99.90
39019;DHT22;24786;51.984;5.872;2024-02-14T03:07:59;8.90;99.90
39019;DHT22;24786;51.984;5.872;2024-02-14T03:10:25;8.90;99.90
39019;DHT22;24786;51.984;5.872;2024-02-14T03:12:51;8.90;99.90
39019;DHT22;24786;51.984;5.872;2024-02-14T03:15:17;9.00;99.90
39019;DHT22;24786;51.984;5.872;2024-02-14T03:17:42;8.90;99.90
39019;DHT22;24786;51.984;5.872;2024-02-14T03:20:11;9.00;99.90
39019;DHT22;24786;51.984;5.872;2024-02-14T03:25:44;9.00;99.90
39019;DHT22;24786;51.984;5.872;2024-02-14T03:28:22;9.00;99.90
39019;DHT22;24786;51.984;5.872;2024-02-14T03:30:59;9.00;99.90
39019;DHT22;24786;51.984;5.872;2024-02-14T03:33:25;9.00;99.90
39019;DHT22;24786;51.984;5.872;2024-02-14T03:35:53;9.00;99.90
39019;DHT22;24786;51.984;5.872;2024-02-14T03:38:28;9.00;99.90
39019;DHT22;24786;51.984;5.872;2024-02-14T03:40:53;9.00;99.90
39019;DHT22;24786;51.984;5.872;2024-02-14T03:43:19;9.00;99.90
39019;DHT22;24786;51.984;5.872;2024-02-14T03:45:45;9.00;99.90
39019;DHT22;24786;51.984;5.872;2024-02-14T03:48:11;9.00;99.90
39019;DHT22;24786;51.984;5.872;2024-02-14T03:50:40;9.00;99.90
39019;DHT22;24786;51.984;5.872;2024-02-14T03:53:05;9.10;99.90
39019;DHT22;24786;51.984;5.872;2024-02-14T03:55:31;9.10;99.90
39019;DHT22;24786;51.984;5.872;2024-02-14T03:57:56;9.10;99.90
39019;DHT22;24786;51.984;5.872;2024-02-14T04:00:22;9.10;99.90
39019;DHT22;24786;51.984;5.872;2024-02-14T04:02:48;9.10;99.90
39019;DHT22;24786;51.984;5.872;2024-02-14T04:05:14;9.20;99.90
39019;DHT22;24786;51.984;5.872;2024-02-14T04:07:40;9.20;99.90
39019;DHT22;24786;51.984;5.872;2024-02-14T04:10:05;9.30;99.90
39019;DHT22;24786;51.984;5.872;2024-02-14T04:12:31;9.20;99.90
39019;DHT22;24786;51.984;5.872;2024-02-14T04:14:57;9.30;99.90
39019;DHT22;24786;51.984;5.872;2024-02-14T04:17:22;9.30;99.90
39019;DHT22;24786;51.984;5.872;2024-02-14T04:19:49;9.30;99.90
39019;DHT22;24786;51.984;5.872;2024-02-14T04:22:15;9.30;99.90
39019;DHT22;24786;51.984;5.872;2024-02-14T04:24:40;9.30;99.90
39019;DHT22;24786;51.984;5.872;2024-02-14T04:27:06;9.30;99.90
39019;DHT22;24786;51.984;5.872;2024-02-14T04:29:31;9.40;99.90
39019;DHT22;24786;51.984;5.872;2024-02-14T04:32:01;9.30;99.90
39019;DHT22;24786;51.984;5.872;2024-02-14T04:34:27;9.40;99.90
39019;DHT22;24786;51.984;5.872;2024-02-14T04:36:53;9.30;99.90
39019;DHT22;24786;51.984;5.872;2024-02-14T04:39:18;9.40;99.90
39019;DHT22;24786;51.984;5.872;2024-02-14T04:41:44;9.40;99.90
39019;DHT22;24786;51.984;5.872;2024-02-14T04:44:10;9.40;99.90
39019;DHT22;24786;51.984;5.872;2024-02-14T04:46:35;9.40;99.90
39019;DHT22;24786;51.984;5.872;2024-02-14T04:49:01;9.40;99.90
39019;DHT22;24786;51.984;5.872;2024-02-14T04:53:56;9.40;99.90
39019;DHT22;24786;51.984;5.872;2024-02-14T04:56:24;9.40;99.90
39019;DHT22;24786;51.984;5.872;2024-02-14T04:58:50;9.40;99.90
39019;DHT22;24786;51.984;5.872;2024-02-14T05:01:15;9.40;99.90
39019;DHT22;24786;51.984;5.872;2024-02-14T05:03:41;9.50;99.90
39019;DHT22;24786;51.984;5.872;2024-02-14T05:06:06;9.40;99.90
39019;DHT22;24786;51.984;5.872;2024-02-14T05:08:32;9.50;99.90
39019;DHT22;24786;51.984;5.872;2024-02-14T05:10:57;9.40;99.90
39019;DHT22;24786;51.984;5.872;2024-02-14T05:13:23;9.50;99.90
39019;DHT22;24786;51.984;5.872;2024-02-14T05:15:49;9.50;99.90
39019;DHT22;24786;51.984;5.872;2024-02-14T05:18:16;9.50;99.90
39019;DHT22;24786;51.984;5.872;2024-02-14T05:20:42;9.50;99.90
39019;DHT22;24786;51.984;5.872;2024-02-14T05:23:07;9.50;99.90
39019;DHT22;24786;51.984;5.872;2024-02-14T05:25:34;9.60;99.90
39019;DHT22;24786;51.984;5.872;2024-02-14T05:28:00;9.50;99.90
39019;DHT22;24786;51.984;5.872;2024-02-14T05:30:26;9.50;99.90
39019;DHT22;24786;51.984;5.872;2024-02-14T05:32:52;9.50;99.90
39019;DHT22;24786;51.984;5.872;2024-02-14T05:35:20;9.60;99.90
39019;DHT22;24786;51.984;5.872;2024-02-14T05:37:45;9.50;99.90
39019;DHT22;24786;51.984;5.872;2024-02-14T05:40:14;9.50;99.90
39019;DHT22;24786;51.984;5.872;2024-02-14T05:46:04;9.50;99.90
39019;DHT22;24786;51.984;5.872;2024-02-14T05:48:30;9.60;99.90
39019;DHT22;24786;51.984;5.872;2024-02-14T05:51:02;9.60;99.90
39019;DHT22;24786;51.984;5.872;2024-02-14T05:53:36;9.60;99.90
39019;DHT22;24786;51.984;5.872;2024-02-14T06:04:56;9.60;99.90
39019;DHT22;24786;51.984;5.872;2024-02-14T06:07:22;9.60;99.90
39019;DHT22;24786;51.984;5.872;2024-02-14T06:09:47;9.60;99.90
39019;DHT22;24786;51.984;5.872;2024-02-14T06:12:13;9.60;99.90
39019;DHT22;24786;51.984;5.872;2024-02-14T06:14:38;9.60;99.90
39019;DHT22;24786;51.984;5.872;2024-02-14T06:17:04;9.60;99.90
39019;DHT22;24786;51.984;5.872;2024-02-14T06:19:30;9.60;99.90
39019;DHT22;24786;51.984;5.872;2024-02-14T06:21:56;9.60;99.90
39019;DHT22;24786;51.984;5.872;2024-02-14T06:24:21;9.60;99.90
39019;DHT22;24786;51.984;5.872;2024-02-14T06:26:47;9.60;99.90
39019;DHT22;24786;51.984;5.872;2024-02-14T06:29:12;9.60;99.90
39019;DHT22;24786;51.984;5.872;2024-02-14T06:34:48;9.60;99.90
39019;DHT22;24786;51.984;5.872;2024-02-14T06:37:13;9.60;99.90
39019;DHT22;24786;51.984;5.872;2024-02-14T06:45:51;9.70;99.90
39019;DHT22;24786;51.984;5.872;2024-02-14T06:51:38;9.70;99.90
39019;DHT22;24786;51.984;5.872;2024-02-14T06:54:12;9.70;99.90
39019;DHT22;24786;51.984;5.872;2024-02-14T07:02:43;9.70;99.90
39019;DHT22;24786;51.984;5.872;2024-02-14T07:05:18;9.70;99.90
39019;DHT22;24786;51.984;5.872;2024-02-14T07:07:49;9.70;99.90
39019;DHT22;24786;51.984;5.872;2024-02-14T07:10:15;9.80;99.90
39019;DHT22;24786;51.984;5.872;2024-02-14T07:12:41;9.80;99.90
39019;DHT22;24786;51.984;5.872;2024-02-14T07:15:10;9.70;99.90
39019;DHT22;24786;51.984;5.872;2024-02-14T07:20:30;9.80;99.90
39019;DHT22;24786;51.984;5.872;2024-02-14T07:26:11;9.80;99.90
39019;DHT22;24786;51.984;5.872;2024-02-14T07:28:39;9.80;99.90
39019;DHT22;24786;51.984;5.872;2024-02-14T07:31:16;9.80;99.90
39019;DHT22;24786;51.984;5.872;2024-02-14T07:33:41;9.70;99.90
39019;DHT22;24786;51.984;5.872;2024-02-14T07:36:17;9.80;99.90
39019;DHT22;24786;51.984;5.872;2024-02-14T07:38:45;9.80;99.90
39019;DHT22;24786;51.984;5.872;2024-02-14T07:47:49;9.90;99.90
39019;DHT22;24786;51.984;5.872;2024-02-14T07:50:21;9.90;99.90
39019;DHT22;24786;51.984;5.872;2024-02-14T07:56:19;9.90;99.90
39019;DHT22;24786;51.984;5.872;2024-02-14T07:58:45;9.90;99.90
39019;DHT22;24786;51.984;5.872;2024-02-14T08:04:14;9.90;99.90
39019;DHT22;24786;51.984;5.872;2024-02-14T08:06:40;10.00;99.90
39019;DHT22;24786;51.984;5.872;2024-02-14T08:09:15;10.00;99.90
39019;DHT22;24786;51.984;5.872;2024-02-14T08:11:40;9.90;99.90
39019;DHT22;24786;51.984;5.872;2024-02-14T08:17:37;10.00;99.90
39019;DHT22;24786;51.984;5.872;2024-02-14T08:20:29;10.10;99.90
39019;DHT22;24786;51.984;5.872;2024-02-14T08:23:08;10.10;99.90
39019;DHT22;24786;51.984;5.872;2024-02-14T08:25:33;10.10;99.90
39019;DHT22;24786;51.984;5.872;2024-02-14T08:27:59;10.10;99.90
39019;DHT22;24786;51.984;5.872;2024-02-14T08:30:27;10.10;99.90
39019;DHT22;24786;51.984;5.872;2024-02-14T08:32:56;10.10;99.90
39019;DHT22;24786;51.984;5.872;2024-02-14T08:35:21;10.10;99.90
39019;DHT22;24786;51.984;5.872;2024-02-14T08:37:47;10.10;99.90
39019;DHT22;24786;51.984;5.872;2024-02-14T08:40:13;10.10;99.90
39019;DHT22;24786;51.984;5.872;2024-02-14T08:42:38;10.10;99.90
39019;DHT22;24786;51.984;5.872;2024-02-14T08:45:04;10.10;99.90
39019;DHT22;24786;51.984;5.872;2024-02-14T08:47:30;10.10;99.90
39019;DHT22;24786;51.984;5.872;2024-02-14T08:49:58;10.10;99.90
39019;DHT22;24786;51.984;5.872;2024-02-14T08:52:25;10.20;99.90
39019;DHT22;24786;51.984;5.872;2024-02-14T08:54:51;10.10;99.90
39019;DHT22;24786;51.984;5.872;2024-02-14T08:57:16;10.10;99.90
39019;DHT22;24786;51.984;5.872;2024-02-14T08:59:43;10.20;99.90
39019;DHT22;24786;51.984;5.872;2024-02-14T09:02:19;10.20;99.90
39019;DHT22;24786;51.984;5.872;2024-02-14T09:05:05;10.20;99.90
39019;DHT22;24786;51.984;5.872;2024-02-14T09:07:40;10.20;99.90
39019;DHT22;24786;51.984;5.872;2024-02-14T09:10:08;10.20;99.90
39019;DHT22;24786;51.984;5.872;2024-02-14T09:12:33;10.20;99.90
39019;DHT22;24786;51.984;5.872;2024-02-14T09:14:59;10.20;99.90
39019;DHT22;24786;51.984;5.872;2024-02-14T09:17:25;10.30;99.90
39019;DHT22;24786;51.984;5.872;2024-02-14T09:19:51;10.30;99.90
39019;DHT22;24786;51.984;5.872;2024-02-14T09:22:17;10.30;99.90
39019;DHT22;24786;51.984;5.872;2024-02-14T09:24:50;10.40;99.90
39019;DHT22;24786;51.984;5.872;2024-02-14T09:27:21;10.40;99.90
39019;DHT22;24786;51.984;5.872;2024-02-14T09:29:47;10.40;99.90
39019;DHT22;24786;51.984;5.872;2024-02-14T09:32:18;10.40;99.90
39019;DHT22;24786;51.984;5.872;2024-02-14T09:37:34;10.40;99.90
39019;DHT22;24786;51.984;5.872;2024-02-14T09:40:15;10.40;99.90
39019;DHT22;24786;51.984;5.872;2024-02-14T09:46:03;10.40;99.90
39019;DHT22;24786;51.984;5.872;2024-02-14T09:48:35;10.40;99.90
39019;DHT22;24786;51.984;5.872;2024-02-14T09:51:03;10.40;99.90
39019;DHT22;24786;51.984;5.872;2024-02-14T09:53:44;10.40;99.90
39019;DHT22;24786;51.984;5.872;2024-02-14T09:56:25;10.50;99.90
39019;DHT22;24786;51.984;5.872;2024-02-14T10:02:21;10.50;99.90
39019;DHT22;24786;51.984;5.872;2024-02-14T10:04:53;10.50;99.90
39019;DHT22;24786;51.984;5.872;2024-02-14T10:10:17;10.50;99.90
39019;DHT22;24786;51.984;5.872;2024-02-14T10:12:43;10.60;99.90
39019;DHT22;24786;51.984;5.872;2024-02-14T10:17:44;10.60;99.90
39019;DHT22;24786;51.984;5.872;2024-02-14T10:20:16;10.60;99.90
39019;DHT22;24786;51.984;5.872;2024-02-14T10:22:44;10.60;99.90
39019;DHT22;24786;51.984;5.872;2024-02-14T10:25:11;10.60;99.90
39019;DHT22;24786;51.984;5.872;2024-02-14T10:27:51;10.70;99.90
39019;DHT22;24786;51.984;5.872;2024-02-14T10:30:20;10.70;99.90
39019;DHT22;24786;51.984;5.872;2024-02-14T10:32:47;10.70;99.90
39019;DHT22;24786;51.984;5.872;2024-02-14T10:38:21;10.70;99.90
39019;DHT22;24786;51.984;5.872;2024-02-14T10:41:00;10.80;99.90
39019;DHT22;24786;51.984;5.872;2024-02-14T10:43:41;10.80;99.90
39019;DHT22;24786;51.984;5.872;2024-02-14T10:58:07;10.90;99.90
39019;DHT22;24786;51.984;5.872;2024-02-14T11:00:33;10.90;99.90
39019;DHT22;24786;51.984;5.872;2024-02-14T11:03:08;11.00;99.90
39019;DHT22;24786;51.984;5.872;2024-02-14T11:05:45;11.00;99.90
39019;DHT22;24786;51.984;5.872;2024-02-14T11:08:13;11.00;99.90
39019;DHT22;24786;51.984;5.872;2024-02-14T11:10:39;11.00;99.90
39019;DHT22;24786;51.984;5.872;2024-02-14T11:13:09;11.00;99.90
39019;DHT22;24786;51.984;5.872;2024-02-14T11:15:46;11.00;99.90
39019;DHT22;24786;51.984;5.872;2024-02-14T11:18:14;11.10;99.90
39019;DHT22;24786;51.984;5.872;2024-02-14T11:20:55;11.10;99.90
39019;DHT22;24786;51.984;5.872;2024-02-14T11:26:00;11.10;99.90
39019;DHT22;24786;51.984;5.872;2024-02-14T11:34:32;11.20;99.90
39019;DHT22;24786;51.984;5.872;2024-02-14T11:45:53;11.30;99.90
39019;DHT22;24786;51.984;5.872;2024-02-14T11:48:19;11.20;99.90
39019;DHT22;24786;51.984;5.872;2024-02-14T11:50:49;11.30;99.90
39019;DHT22;24786;51.984;5.872;2024-02-14T11:53:19;11.30;99.90
39019;DHT22;24786;51.984;5.872;2024-02-14T11:55:55;11.30;99.90
39019;DHT22;24786;51.984;5.872;2024-02-14T12:04:27;11.30;99.90
39019;DHT22;24786;51.984;5.872;2024-02-14T12:07:03;11.30;99.90
39019;DHT22;24786;51.984;5.872;2024-02-14T12:09:28;11.40;99.90
39019;DHT22;24786;51.984;5.872;2024-02-14T12:11:54;11.30;99.90
39019;DHT22;24786;51.984;5.872;2024-02-14T12:14:22;11.30;99.90
39019;DHT22;24786;51.984;5.872;2024-02-14T12:16:59;11.30;99.90
39019;DHT22;24786;51.984;5.872;2024-02-14T12:28:15;11.40;99.90
39019;DHT22;24786;51.984;5.872;2024-02-14T12:30:53;11.40;99.90
39019;DHT22;24786;51.984;5.872;2024-02-14T12:33:21;11.50;99.90
39019;DHT22;24786;51.984;5.872;2024-02-14T12:35:59;11.40;99.90
39019;DHT22;24786;51.984;5.872;2024-02-14T12:38:25;11.40;99.90
39019;DHT22;24786;51.984;5.872;2024-02-14T12:43:53;11.50;99.90
39019;DHT22;24786;51.984;5.872;2024-02-14T12:46:19;11.50;99.90
39019;DHT22;24786;51.984;5.872;2024-02-14T12:48:45;11.50;99.90
39019;DHT22;24786;51.984;5.872;2024-02-14T12:51:10;11.40;99.90
39019;DHT22;24786;51.984;5.872;2024-02-14T12:56:39;11.40;99.90
39019;DHT22;24786;51.984;5.872;2024-02-14T13:01:49;11.40;99.90
39019;DHT22;24786;51.984;5.872;2024-02-14T13:04:20;11.40;99.90
39019;DHT22;24786;51.984;5.872;2024-02-14T13:06:46;11.40;99.90
39019;DHT22;24786;51.984;5.872;2024-02-14T13:09:15;11.40;99.90
39019;DHT22;24786;51.984;5.872;2024-02-14T13:11:41;11.40;99.90
39019;DHT22;24786;51.984;5.872;2024-02-14T13:14:08;11.40;99.90
39019;DHT22;24786;51.984;5.872;2024-02-14T13:16:34;11.50;99.90
39019;DHT22;24786;51.984;5.872;2024-02-14T13:22:03;11.40;99.90
39019;DHT22;24786;51.984;5.872;2024-02-14T13:27:35;11.40;99.90
39019;DHT22;24786;51.984;5.872;2024-02-14T13:30:03;11.60;99.90
39019;DHT22;24786;51.984;5.872;2024-02-14T13:32:29;11.40;99.90
39019;DHT22;24786;51.984;5.872;2024-02-14T13:35:04;11.40;99.90
39019;DHT22;24786;51.984;5.872;2024-02-14T13:37:31;11.40;99.90
39019;DHT22;24786;51.984;5.872;2024-02-14T13:39:57;11.40;99.90
39019;DHT22;24786;51.984;5.872;2024-02-14T13:42:41;11.50;99.90
39019;DHT22;24786;51.984;5.872;2024-02-14T13:45:15;11.40;99.90
39019;DHT22;24786;51.984;5.872;2024-02-14T13:47:41;11.50;99.90
39019;DHT22;24786;51.984;5.872;2024-02-14T13:50:10;11.50;99.90
39019;DHT22;24786;51.984;5.872;2024-02-14T13:52:36;11.50;99.90
39019;DHT22;24786;51.984;5.872;2024-02-14T13:55:07;11.50;99.90
39019;DHT22;24786;51.984;5.872;2024-02-14T13:57:36;11.40;99.90
39019;DHT22;24786;51.984;5.872;2024-02-14T14:00:14;11.50;99.90
39019;DHT22;24786;51.984;5.872;2024-02-14T14:02:51;11.50;99.90
39019;DHT22;24786;51.984;5.872;2024-02-14T14:08:13;11.50;99.90
39019;DHT22;24786;51.984;5.872;2024-02-14T14:10:38;11.60;99.90
39019;DHT22;24786;51.984;5.872;2024-02-14T14:13:04;11.50;99.90
39019;DHT22;24786;51.984;5.872;2024-02-14T14:15:29;11.50;99.90
39019;DHT22;24786;51.984;5.872;2024-02-14T14:17:57;11.50;99.90
39019;DHT22;24786;51.984;5.872;2024-02-14T14:20:35;11.50;99.90
39019;DHT22;24786;51.984;5.872;2024-02-14T14:23:00;11.50;99.90
39019;DHT22;24786;51.984;5.872;2024-02-14T14:25:28;11.50;99.90
39019;DHT22;24786;51.984;5.872;2024-02-14T14:27:57;11.50;99.90
39019;DHT22;24786;51.984;5.872;2024-02-14T14:30:35;11.60;99.90
39019;DHT22;24786;51.984;5.872;2024-02-14T14:48:01;11.60;99.90
39019;DHT22;24786;51.984;5.872;2024-02-14T14:50:35;11.60;99.90
39019;DHT22;24786;51.984;5.872;2024-02-14T14:53:08;11.60;99.90
39019;DHT22;24786;51.984;5.872;2024-02-14T14:55:49;11.60;99.90
39019;DHT22;24786;51.984;5.872;2024-02-14T14:58:24;11.60;99.90
39019;DHT22;24786;51.984;5.872;2024-02-14T15:00:55;11.70;99.90
39019;DHT22;24786;51.984;5.872;2024-02-14T15:03:21;11.70;99.90
39019;DHT22;24786;51.984;5.872;2024-02-14T15:05:49;11.70;99.90
39019;DHT22;24786;51.984;5.872;2024-02-14T15:08:15;11.70;99.90
39019;DHT22;24786;51.984;5.872;2024-02-14T15:10:43;11.70;99.90
39019;DHT22;24786;51.984;5.872;2024-02-14T15:13:09;11.70;99.90
39019;DHT22;24786;51.984;5.872;2024-02-14T15:15:47;11.70;99.90
39019;DHT22;24786;51.984;5.872;2024-02-14T15:18:14;11.70;99.90
39019;DHT22;24786;51.984;5.872;2024-02-14T15:20:40;11.80;99.90
39019;DHT22;24786;51.984;5.872;2024-02-14T15:23:15;11.80;99.90
39019;DHT22;24786;51.984;5.872;2024-02-14T15:25:40;11.80;99.90
39019;DHT22;24786;51.984;5.872;2024-02-14T15:28:10;11.80;99.90
39019;DHT22;24786;51.984;5.872;2024-02-14T15:30:42;11.80;99.90
39019;DHT22;24786;51.984;5.872;2024-02-14T15:33:26;11.80;99.90
39019;DHT22;24786;51.984;5.872;2024-02-14T15:35:53;11.80;99.90
39019;DHT22;24786;51.984;5.872;2024-02-14T15:41:30;11.80;99.90
39019;DHT22;24786;51.984;5.872;2024-02-14T15:43:57;11.80;99.90
39019;DHT22;24786;51.984;5.872;2024-02-14T15:46:22;11.80;99.90
39019;DHT22;24786;51.984;5.872;2024-02-14T15:48:49;11.80;99.90
39019;DHT22;24786;51.984;5.872;2024-02-14T15:51:14;11.80;99.90
39019;DHT22;24786;51.984;5.872;2024-02-14T15:53:41;11.80;99.90
39019;DHT22;24786;51.984;5.872;2024-02-14T15:56:06;11.80;99.90
39019;DHT22;24786;51.984;5.872;2024-02-14T15:58:35;11.80;99.90
39019;DHT22;24786;51.984;5.872;2024-02-14T16:01:12;11.80;99.90
39019;DHT22;24786;51.984;5.872;2024-02-14T16:03:38;11.90;99.90
39019;DHT22;24786;51.984;5.872;2024-02-14T16:06:04;11.80;99.90
39019;DHT22;24786;51.984;5.872;2024-02-14T16:08:29;11.80;99.90
39019;DHT22;24786;51.984;5.872;2024-02-14T16:10:55;11.80;99.90
39019;DHT22;24786;51.984;5.872;2024-02-14T16:13:22;11.80;99.90
39019;DHT22;24786;51.984;5.872;2024-02-14T16:15:59;11.80;99.90
39019;DHT22;24786;51.984;5.872;2024-02-14T16:18:27;11.80;99.90
39019;DHT22;24786;51.984;5.872;2024-02-14T16:20:56;11.80;99.90
39019;DHT22;24786;51.984;5.872;2024-02-14T16:23:21;11.80;99.90
39019;DHT22;24786;51.984;5.872;2024-02-14T16:25:49;11.90;99.90
39019;DHT22;24786;51.984;5.872;2024-02-14T16:28:15;11.80;99.90
39019;DHT22;24786;51.984;5.872;2024-02-14T16:30:40;11.80;99.90
39019;DHT22;24786;51.984;5.872;2024-02-14T16:33:07;11.80;99.90
39019;DHT22;24786;51.984;5.872;2024-02-14T16:35:32;11.80;99.90
39019;DHT22;24786;51.984;5.872;2024-02-14T16:37:58;11.90;99.90
39019;DHT22;24786;51.984;5.872;2024-02-14T16:40:26;11.80;99.90
39019;DHT22;24786;51.984;5.872;2024-02-14T16:42:54;11.80;99.90
39019;DHT22;24786;51.984;5.872;2024-02-14T16:45:19;11.90;99.90
39019;DHT22;24786;51.984;5.872;2024-02-14T16:47:54;11.90;99.90
39019;DHT22;24786;51.984;5.872;2024-02-14T16:50:20;11.90;99.90
39019;DHT22;24786;51.984;5.872;2024-02-14T16:52:54;11.90;99.90
39019;DHT22;24786;51.984;5.872;2024-02-14T16:55:20;11.90;99.90
39019;DHT22;24786;51.984;5.872;2024-02-14T16:57:46;11.90;99.90
39019;DHT22;24786;51.984;5.872;2024-02-14T17:00:32;11.80;99.90
39019;DHT22;24786;51.984;5.872;2024-02-14T17:02:58;11.90;99.90
39019;DHT22;24786;51.984;5.872;2024-02-14T17:05:30;11.90;99.90
39019;DHT22;24786;51.984;5.872;2024-02-14T17:07:55;11.90;99.90
39019;DHT22;24786;51.984;5.872;2024-02-14T17:10:23;11.90;99.90
39019;DHT22;24786;51.984;5.872;2024-02-14T17:12:53;12.00;99.90
39019;DHT22;24786;51.984;5.872;2024-02-14T17:15:18;11.90;99.90
39019;DHT22;24786;51.984;5.872;2024-02-14T17:17:44;11.90;99.90
39019;DHT22;24786;51.984;5.872;2024-02-14T17:20:25;12.00;99.90
39019;DHT22;24786;51.984;5.872;2024-02-14T17:23:09;12.10;99.90
39019;DHT22;24786;51.984;5.872;2024-02-14T17:25:35;11.90;99.90
39019;DHT22;24786;51.984;5.872;2024-02-14T17:30:29;12.00;99.90
39019;DHT22;24786;51.984;5.872;2024-02-14T17:33:00;12.00;99.90
39019;DHT22;24786;51.984;5.872;2024-02-14T17:35:27;12.00;99.90
39019;DHT22;24786;51.984;5.872;2024-02-14T17:37:58;12.00;99.90
39019;DHT22;24786;51.984;5.872;2024-02-14T17:40:26;12.00;99.90
39019;DHT22;24786;51.984;5.872;2024-02-14T17:43:00;12.00;99.90
39019;DHT22;24786;51.984;5.872;2024-02-14T17:45:26;12.00;99.90
39019;DHT22;24786;51.984;5.872;2024-02-14T17:47:51;12.00;99.90
39019;DHT22;24786;51.984;5.872;2024-02-14T17:50:17;12.00;99.90
39019;DHT22;24786;51.984;5.872;2024-02-14T17:52:43;12.00;99.90
39019;DHT22;24786;51.984;5.872;2024-02-14T17:55:10;12.00;99.90
39019;DHT22;24786;51.984;5.872;2024-02-14T17:57:37;12.00;99.90
39019;DHT22;24786;51.984;5.872;2024-02-14T18:00:02;12.00;99.90
39019;DHT22;24786;51.984;5.872;2024-02-14T18:02:30;12.00;99.90
39019;DHT22;24786;51.984;5.872;2024-02-14T18:04:58;12.00;99.90
39019;DHT22;24786;51.984;5.872;2024-02-14T18:07:39;12.00;99.90
39019;DHT22;24786;51.984;5.872;2024-02-14T18:10:05;12.00;99.90
39019;DHT22;24786;51.984;5.872;2024-02-14T18:12:38;12.00;99.90
39019;DHT22;24786;51.984;5.872;2024-02-14T18:15:10;12.00;99.90
39019;DHT22;24786;51.984;5.872;2024-02-14T18:17:36;12.00;99.90
39019;DHT22;24786;51.984;5.872;2024-02-14T18:20:01;12.00;99.90
39019;DHT22;24786;51.984;5.872;2024-02-14T18:25:30;12.00;99.90
39019;DHT22;24786;51.984;5.872;2024-02-14T18:28:09;12.00;99.90
39019;DHT22;24786;51.984;5.872;2024-02-14T18:30:43;12.00;99.90